KEGI/EGI METAR and TAF weather

Enter ICAO airport designator
Station Type Date Time Source
KEGI METAR 2018/04/27 00:55 UTC NOAA

KEGI 270055Z 32006KT 10SM FEW045 20/12 A2984 RMK AO2A SLP105 T01960116 $


Station Type Date Time Source
KEGI Decoded METAR 2018/04/27 00:55 UTC NOAA

Duke Field / Eglin Auxiliary, FL, United States (KEGI) 30-39N 086-31W
Apr 26, 2018 - 08:55 PM EDT / 2018.04.27 0055 UTC
Wind: from the NW (320 degrees) at 7 MPH (6 KT):0
Visibility: 10 mile(s):0
Sky conditions: mostly clear
Temperature: 67.3 F (19.6 C)
Dew Point: 52.9 F (11.6 C)
Relative Humidity: 59%
Pressure (altimeter): 29.84 in. Hg (1010 hPa)
ob: KEGI 270055Z 32006KT 10SM FEW045 20/12 A2984 RMK AO2A SLP105 T01960116
cycle: 1

Station Type Date Time Source
KEGI TAF 2018/04/27 01:04 UTC NOAA

TAF KEGI 270100Z 2701/2807 31008KT 9999 SCT050 QNH2982INS
BECMG 2705/2706 32006KT 9999 FEW020 QNH2988INS
BECMG 2709/2710 32004KT 4800 BR SCT008 QNH2992INS
BECMG 2712/2713 32007KT 9999 NSW SCT015 QNH2991INS
BECMG 2717/2718 31010KT 9999 SCT025 BKN200 QNH2988INS
BECMG 2723/2724 34007KT 9999 FEW025 FEW200 QNH2993INS TX23/2718Z TN13/2709Z


Example: see airport list